createdAt,value
2016-10-24T00:00:23.456Z,0
2016-10-24T00:01:23.416Z,0
2016-10-24T00:02:22.774Z,0
2016-10-24T00:03:23.336Z,0
2016-10-24T00:04:22.995Z,0
2016-10-24T00:05:23.261Z,0
2016-10-24T00:06:22.929Z,0
2016-10-24T00:07:22.886Z,0
2016-10-24T00:08:22.552Z,0
2016-10-24T00:09:22.811Z,0
2016-10-24T00:10:22.774Z,0
2016-10-24T00:11:22.736Z,0
2016-10-24T00:12:22.705Z,0
2016-10-24T00:13:22.664Z,0
2016-10-24T00:14:22.927Z,0
2016-10-24T00:15:22.628Z,0
2016-10-24T00:16:22.851Z,0
2016-10-24T00:17:22.514Z,0
2016-10-24T00:18:22.473Z,0
2016-10-24T00:19:22.438Z,0
2016-10-24T00:20:22.700Z,0
2016-10-24T00:21:22.368Z,0
2016-10-24T00:22:22.028Z,0
2016-10-24T00:23:22.596Z,0
2016-10-24T00:24:22.551Z,0
2016-10-24T00:25:22.222Z,0
2016-10-24T00:26:22.483Z,0
2016-10-24T00:27:22.137Z,0
2016-10-24T00:28:22.407Z,0
2016-10-24T00:29:22.365Z,0
2016-10-24T00:30:22.031Z,0
2016-10-24T00:31:22.298Z,0
2016-10-24T00:32:22.292Z,0
2016-10-24T00:33:22.215Z,0
2016-10-24T00:34:21.875Z,0
2016-10-24T00:35:22.143Z,0
2016-10-24T00:36:21.805Z,0
2016-10-24T00:37:21.770Z,0
2016-10-24T00:38:21.732Z,0
2016-10-24T00:39:21.999Z,0
2016-10-24T00:40:21.656Z,0
2016-10-24T00:41:21.313Z,0
2016-10-24T00:42:21.884Z,0
2016-10-24T00:43:21.844Z,0
2016-10-24T00:44:21.209Z,0
2016-10-24T00:45:21.474Z,0
2016-10-24T00:46:21.736Z,0
2016-10-24T00:47:21.389Z,0
2016-10-24T00:48:21.358Z,0
2016-10-24T00:49:21.634Z,0
2016-10-24T00:50:21.287Z,0
2016-10-24T00:51:21.250Z,0
2016-10-24T00:52:21.521Z,0
2016-10-24T00:53:21.466Z,0
2016-10-24T00:54:21.136Z,0
2016-10-24T00:55:21.396Z,0
2016-10-24T00:56:21.359Z,0
2016-10-24T00:57:21.319Z,0
2016-10-24T00:58:20.978Z,0
2016-10-24T00:59:20.946Z,0
2016-10-24T01:00:21.207Z,0
2016-10-24T01:01:20.875Z,0
2016-10-24T01:02:20.831Z,0
2016-10-24T01:03:21.096Z,0
2016-10-24T01:04:20.457Z,0
2016-10-24T01:05:21.023Z,0
2016-10-24T01:06:20.987Z,0
2016-10-24T01:07:20.643Z,0
2016-10-24T01:08:20.912Z,0
2016-10-24T01:09:20.566Z,0
2016-10-24T01:10:20.832Z,0
2016-10-24T01:11:20.803Z,0
2016-10-24T01:12:20.756Z,0
2016-10-24T01:13:20.723Z,0
2016-10-24T01:14:20.106Z,0
2016-10-24T01:15:20.663Z,0
2016-10-24T01:16:20.303Z,0
2016-10-24T01:17:20.280Z,0
2016-10-24T01:18:20.530Z,0
2016-10-24T01:19:20.499Z,0
2016-10-24T01:20:20.159Z,0
2016-10-24T01:21:20.421Z,0
2016-10-24T01:22:20.385Z,0
2016-10-24T01:23:20.045Z,0
2016-10-24T01:24:20.311Z,0
2016-10-24T01:25:19.667Z,0
2016-10-24T01:26:19.645Z,0
2016-10-24T01:27:19.897Z,0
2016-10-24T01:28:19.859Z,0
2016-10-24T01:29:19.821Z,0
2016-10-24T01:30:19.792Z,0
2016-10-24T01:31:19.744Z,0
2016-10-24T01:32:19.709Z,0
2016-10-24T01:33:19.979Z,0
2016-10-24T01:34:19.339Z,0
2016-10-24T01:35:19.632Z,0
2016-10-24T01:36:19.861Z,0
2016-10-24T01:37:19.819Z,0
2016-10-24T01:38:19.480Z,0
2016-10-24T01:39:19.751Z,0
2016-10-24T01:40:19.441Z,0
2016-10-24T01:41:19.367Z,0
2016-10-24T01:42:19.334Z,0
2016-10-24T01:43:19.293Z,0
2016-10-24T01:44:19.560Z,0
2016-10-24T01:45:19.550Z,0
2016-10-24T01:46:19.208Z,0
2016-10-24T01:47:19.448Z,0
2016-10-24T01:48:19.404Z,0
2016-10-24T01:49:19.370Z,0
2016-10-24T01:50:19.332Z,0
2016-10-24T01:51:19.308Z,0
2016-10-24T01:52:18.970Z,0
2016-10-24T01:53:18.918Z,0
2016-10-24T01:54:19.187Z,0
2016-10-24T01:55:18.840Z,0
2016-10-24T01:56:19.110Z,0
2016-10-24T01:57:18.768Z,0
2016-10-24T01:58:19.037Z,0
2016-10-24T01:59:18.995Z,0
2016-10-24T02:00:18.953Z,0
2016-10-24T02:01:18.921Z,0
2016-10-24T02:02:18.886Z,0
2016-10-24T02:03:18.843Z,0
2016-10-24T02:04:18.804Z,0
2016-10-24T02:05:18.775Z,0
2016-10-24T02:06:18.435Z,0
2016-10-24T02:07:18.391Z,0
2016-10-24T02:08:18.653Z,0
2016-10-24T02:09:18.618Z,0
2016-10-24T02:10:18.621Z,0
2016-10-24T02:11:17.634Z,0
2016-10-24T02:12:18.509Z,0
2016-10-24T02:13:18.165Z,0
2016-10-24T02:14:18.432Z,0
2016-10-24T02:15:17.792Z,0
2016-10-24T02:16:18.058Z,0
2016-10-24T02:17:18.020Z,0
2016-10-24T02:18:17.978Z,0
2016-10-24T02:19:18.244Z,0
2016-10-24T02:20:17.904Z,0
2016-10-24T02:21:18.181Z,0
2016-10-24T02:22:18.135Z,0
2016-10-24T02:23:18.096Z,0
2016-10-24T02:24:17.451Z,0
2016-10-24T02:25:18.043Z,0
2016-10-24T02:26:17.985Z,0
2016-10-24T02:27:17.639Z,0
2016-10-24T02:28:17.937Z,0
2016-10-24T02:29:17.902Z,0
2016-10-24T02:30:17.539Z,0
2016-10-24T02:31:17.793Z,0
2016-10-24T02:32:17.755Z,0
2016-10-24T02:33:17.419Z,0
2016-10-24T02:34:17.381Z,0
2016-10-24T02:35:17.349Z,0
2016-10-24T02:36:17.001Z,0
2016-10-24T02:37:17.603Z,0
2016-10-24T02:38:17.534Z,0
2016-10-24T02:39:17.507Z,0
2016-10-24T02:40:17.503Z,0
2016-10-24T02:41:17.416Z,0
2016-10-24T02:42:17.382Z,0
2016-10-24T02:43:17.051Z,0
2016-10-24T02:44:17.311Z,0
2016-10-24T02:45:16.967Z,0
2016-10-24T02:46:16.658Z,0
2016-10-24T02:47:16.590Z,0
2016-10-24T02:48:16.555Z,0
2016-10-24T02:49:17.157Z,0
2016-10-24T02:50:16.781Z,0
2016-10-24T02:51:17.045Z,0
2016-10-24T02:52:16.716Z,0
2016-10-24T02:53:16.976Z,0
2016-10-24T02:54:16.333Z,0
2016-10-24T02:55:16.898Z,0
2016-10-24T02:56:16.595Z,0
2016-10-24T02:57:16.524Z,0
2016-10-24T02:58:16.786Z,0
2016-10-24T02:59:16.743Z,0
2016-10-24T03:00:16.705Z,0
2016-10-24T03:01:16.386Z,0
2016-10-24T03:02:16.334Z,0
2016-10-24T03:03:16.291Z,0
2016-10-24T03:04:16.263Z,0
2016-10-24T03:05:16.221Z,0
2016-10-24T03:06:16.490Z,0
2016-10-24T03:07:16.148Z,0
2016-10-24T03:08:16.104Z,0
2016-10-24T03:09:16.368Z,0
2016-10-24T03:10:16.029Z,0
2016-10-24T03:11:15.688Z,0
2016-10-24T03:12:15.959Z,0
2016-10-24T03:13:15.915Z,0
2016-10-24T03:14:16.186Z,0
2016-10-24T03:15:15.543Z,0
2016-10-24T03:16:16.116Z,0
2016-10-24T03:17:16.074Z,0
2016-10-24T03:18:15.429Z,0
2016-10-24T03:19:15.697Z,0
2016-10-24T03:20:15.957Z,0
2016-10-24T03:21:15.962Z,0
2016-10-24T03:22:15.585Z,0
2016-10-24T03:23:15.842Z,0
2016-10-24T03:24:15.804Z,0
2016-10-24T03:25:15.771Z,0
2016-10-24T03:26:15.431Z,0
2016-10-24T03:27:15.691Z,0
2016-10-24T03:28:15.656Z,0
2016-10-24T03:29:15.319Z,0
2016-10-24T03:30:15.275Z,0
2016-10-24T03:31:15.234Z,0
2016-10-24T03:32:15.207Z,0
2016-10-24T03:33:15.468Z,0
2016-10-24T03:34:15.128Z,0
2016-10-24T03:35:15.392Z,0
2016-10-24T03:36:15.353Z,0
2016-10-24T03:37:15.013Z,0
2016-10-24T03:38:14.976Z,0
2016-10-24T03:39:15.246Z,0
2016-10-24T03:40:14.598Z,0
2016-10-24T03:41:15.165Z,0
2016-10-24T03:42:15.124Z,0
2016-10-24T03:43:14.803Z,0
2016-10-24T03:44:14.745Z,0
2016-10-24T03:45:15.017Z,0
2016-10-24T03:46:14.996Z,0
2016-10-24T03:47:14.932Z,0
2016-10-24T03:48:14.594Z,0
2016-10-24T03:49:14.559Z,0
2016-10-24T03:50:14.819Z,0
2016-10-24T03:51:14.815Z,0
2016-10-24T03:52:14.743Z,0
2016-10-24T03:53:14.704Z,0
2016-10-24T03:54:14.371Z,0
2016-10-24T03:55:14.636Z,0
2016-10-24T03:56:14.595Z,0
2016-10-24T03:57:14.571Z,0
2016-10-24T03:58:14.514Z,0
2016-10-24T03:59:14.476Z,0
2016-10-24T04:00:14.469Z,0
2016-10-24T04:01:14.397Z,0
2016-10-24T04:02:14.364Z,0
2016-10-24T04:03:14.021Z,0
2016-10-24T04:04:14.326Z,0
2016-10-24T04:05:13.981Z,0
2016-10-24T04:06:14.221Z,0
2016-10-24T04:07:13.870Z,0
2016-10-24T04:08:13.851Z,0
2016-10-24T04:09:14.090Z,0
2016-10-24T04:10:14.065Z,0
2016-10-24T04:11:13.720Z,0
2016-10-24T04:12:13.979Z,0
2016-10-24T04:13:13.644Z,0
2016-10-24T04:14:13.608Z,0
2016-10-24T04:15:13.566Z,0
2016-10-24T04:16:13.858Z,0
2016-10-24T04:17:13.489Z,0
2016-10-24T04:18:13.755Z,0
2016-10-24T04:19:13.115Z,0
2016-10-24T04:20:13.688Z,0
2016-10-24T04:21:13.343Z,0
2016-10-24T04:22:13.000Z,0
2016-10-24T04:23:13.258Z,0
2016-10-24T04:24:13.233Z,0
2016-10-24T04:25:13.192Z,0
2016-10-24T04:26:13.465Z,0
2016-10-24T04:27:13.109Z,0
2016-10-24T04:28:13.373Z,0
2016-10-24T04:29:13.334Z,0
2016-10-24T04:30:12.993Z,0
2016-10-24T04:31:12.958Z,0
2016-10-24T04:32:13.214Z,0
2016-10-24T04:33:12.878Z,0
2016-10-24T04:34:13.143Z,0
2016-10-24T04:35:12.505Z,0
2016-10-24T04:36:12.765Z,0
2016-10-24T04:37:13.032Z,0
2016-10-24T04:38:12.118Z,0
2016-10-24T04:39:12.663Z,0
2016-10-24T04:40:12.918Z,0
2016-10-24T04:41:12.874Z,0
2016-10-24T04:42:12.545Z,0
2016-10-24T04:43:12.799Z,0
2016-10-24T04:44:12.457Z,0
2016-10-24T04:45:12.422Z,0
2016-10-24T04:46:12.116Z,0
2016-10-24T04:47:12.660Z,0
2016-10-24T04:48:12.623Z,0
2016-10-24T04:49:12.570Z,0
2016-10-24T04:50:12.229Z,0
2016-10-24T04:51:12.493Z,0
2016-10-24T04:52:11.856Z,0
2016-10-24T04:53:12.411Z,0
2016-10-24T04:54:12.081Z,0
2016-10-24T04:55:12.337Z,0
2016-10-24T04:56:11.998Z,0
2016-10-24T04:57:12.264Z,0
2016-10-24T04:58:11.926Z,0
2016-10-24T04:59:12.219Z,0
2016-10-24T05:00:12.153Z,0
2016-10-24T05:01:11.505Z,0
2016-10-24T05:02:12.077Z,0
2016-10-24T05:03:12.069Z,0
2016-10-24T05:04:11.695Z,0
2016-10-24T05:05:11.958Z,0
2016-10-24T05:06:11.011Z,0
2016-10-24T05:07:11.279Z,0
2016-10-24T05:08:11.842Z,0
2016-10-24T05:09:11.507Z,0
2016-10-24T05:10:11.762Z,0
2016-10-24T05:11:11.728Z,0
2016-10-24T05:12:11.088Z,0
2016-10-24T05:13:11.355Z,0
2016-10-24T05:14:11.311Z,0
2016-10-24T05:15:10.973Z,0
2016-10-24T05:16:10.936Z,0
2016-10-24T05:17:10.899Z,0
2016-10-24T05:18:11.156Z,0
2016-10-24T05:19:11.141Z,0
2016-10-24T05:20:11.085Z,0
2016-10-24T05:21:11.047Z,0
2016-10-24T05:22:11.003Z,0
2016-10-24T05:23:10.697Z,0
2016-10-24T05:24:10.931Z,0
2016-10-24T05:25:11.192Z,4
2016-10-24T05:26:11.158Z,4
2016-10-24T05:27:10.511Z,4
2016-10-24T05:28:11.073Z,4
2016-10-24T05:29:11.035Z,4
2016-10-24T05:30:10.703Z,12
2016-10-24T05:31:10.967Z,12
2016-10-24T05:32:10.320Z,8
2016-10-24T05:33:10.897Z,12
2016-10-24T05:34:10.248Z,12
2016-10-24T05:35:10.816Z,16
2016-10-24T05:36:10.777Z,16
2016-10-24T05:37:10.124Z,16
2016-10-24T05:38:10.696Z,20
2016-10-24T05:39:10.654Z,24
2016-10-24T05:40:10.626Z,24
2016-10-24T05:41:10.313Z,32
2016-10-24T05:42:10.243Z,32
2016-10-24T05:43:10.512Z,40
2016-10-24T05:44:10.156Z,44
2016-10-24T05:45:10.131Z,52
2016-10-24T05:46:10.086Z,56
2016-10-24T05:47:10.353Z,60
2016-10-24T05:48:09.702Z,68
2016-10-24T05:49:10.305Z,80
2016-10-24T05:50:10.304Z,88
2016-10-24T05:51:10.190Z,104
2016-10-24T05:52:10.155Z,112
2016-10-24T05:53:09.828Z,116
2016-10-24T05:54:10.075Z,120
2016-10-24T05:55:09.742Z,124
2016-10-24T05:56:10.005Z,136
2016-10-24T05:57:09.057Z,140
2016-10-24T05:58:09.621Z,148
2016-10-24T05:59:09.886Z,164
2016-10-24T06:00:09.852Z,180
2016-10-24T06:01:09.505Z,188
2016-10-24T06:02:09.175Z,200
2016-10-24T06:03:09.737Z,228
2016-10-24T06:04:09.095Z,252
2016-10-24T06:05:09.658Z,276
2016-10-24T06:06:09.311Z,300
2016-10-24T06:07:09.576Z,336
2016-10-24T06:08:09.246Z,404
2016-10-24T06:09:09.222Z,472
2016-10-24T06:10:09.159Z,540
2016-10-24T06:11:08.821Z,628
2016-10-24T06:12:08.781Z,764
2016-10-24T06:13:09.341Z,928
2016-10-24T06:14:09.317Z,1124
2016-10-24T06:15:09.275Z,1272
2016-10-24T06:16:08.924Z,1344
2016-10-24T06:17:08.901Z,1516
2016-10-24T06:18:09.148Z,1624
2016-10-24T06:19:09.115Z,1760
2016-10-24T06:20:09.085Z,1888
2016-10-24T06:21:09.040Z,2020
2016-10-24T06:22:08.737Z,2144
2016-10-24T06:23:08.664Z,2284
2016-10-24T06:24:08.929Z,2440
2016-10-24T06:25:08.884Z,2560
2016-10-24T06:26:08.245Z,2652
2016-10-24T06:27:08.810Z,2740
2016-10-24T06:28:08.470Z,2816
2016-10-24T06:29:08.426Z,2932
2016-10-24T06:30:08.388Z,3060
2016-10-24T06:31:08.351Z,3132
2016-10-24T06:32:08.614Z,3180
2016-10-24T06:33:08.577Z,3252
2016-10-24T06:34:08.536Z,3428
2016-10-24T06:35:08.201Z,3608
2016-10-24T06:36:08.480Z,3764
2016-10-24T06:37:08.126Z,3880
2016-10-24T06:38:08.407Z,3944
2016-10-24T06:39:08.044Z,3996
2016-10-24T06:40:08.015Z,4056
2016-10-24T06:41:08.276Z,4132
2016-10-24T06:42:08.243Z,4336
2016-10-24T06:43:07.597Z,4688
2016-10-24T06:44:08.157Z,5384
2016-10-24T06:45:08.119Z,5324
2016-10-24T06:46:08.084Z,5740
2016-10-24T06:47:07.746Z,4996
2016-10-24T06:48:07.703Z,4324
2016-10-24T06:49:07.965Z,4396
2016-10-24T06:50:07.928Z,4808
2016-10-24T06:51:07.599Z,5040
2016-10-24T06:52:07.557Z,5128
2016-10-24T06:53:07.513Z,5288
2016-10-24T06:54:07.485Z,4564
2016-10-24T06:55:07.779Z,4196
2016-10-24T06:56:07.721Z,4080
2016-10-24T06:57:07.663Z,3936
2016-10-24T06:58:07.334Z,3064
2016-10-24T06:59:07.588Z,2900
2016-10-24T07:00:06.954Z,2964
2016-10-24T07:01:06.918Z,2672
2016-10-24T07:02:06.876Z,2844
2016-10-24T07:03:07.442Z,2996
2016-10-24T07:04:07.408Z,2644
2016-10-24T07:05:07.369Z,2596
2016-10-24T07:06:07.334Z,3004
2016-10-24T07:07:06.684Z,2656
2016-10-24T07:08:06.982Z,2384
2016-10-24T07:09:07.265Z,2256
2016-10-24T07:10:07.177Z,2760
2016-10-24T07:11:06.534Z,3612
2016-10-24T07:12:07.111Z,4072
2016-10-24T07:13:06.461Z,4148
2016-10-24T07:14:06.729Z,4292
2016-10-24T07:15:06.701Z,4324
2016-10-24T07:16:06.963Z,3720
2016-10-24T07:17:06.620Z,3140
2016-10-24T07:18:06.284Z,2916
2016-10-24T07:19:06.545Z,3420
2016-10-24T07:20:06.806Z,3524
2016-10-24T07:21:06.468Z,3648
2016-10-24T07:22:06.740Z,3872
2016-10-24T07:23:06.397Z,3608
2016-10-24T07:24:06.362Z,3368
2016-10-24T07:25:06.024Z,2852
2016-10-24T07:26:06.586Z,3228
2016-10-24T07:27:06.548Z,3100
2016-10-24T07:28:06.518Z,3044
2016-10-24T07:29:06.168Z,2708
2016-10-24T07:30:06.134Z,2740
2016-10-24T07:31:06.406Z,2748
2016-10-24T07:32:06.072Z,2948
2016-10-24T07:33:06.025Z,3596
2016-10-24T07:34:06.291Z,4024
2016-10-24T07:35:05.954Z,4228
2016-10-24T07:36:06.211Z,4436
2016-10-24T07:37:05.877Z,4560
2016-10-24T07:38:05.837Z,3852
2016-10-24T07:39:06.107Z,3728
2016-10-24T07:40:05.768Z,2956
2016-10-24T07:41:06.030Z,2628
2016-10-24T07:42:05.993Z,2860
2016-10-24T07:43:05.666Z,2912
2016-10-24T07:44:05.622Z,3388
2016-10-24T07:45:05.588Z,3212
2016-10-24T07:46:05.552Z,4468
2016-10-24T07:47:05.213Z,3564
2016-10-24T07:48:05.773Z,3292
2016-10-24T07:49:05.737Z,3984
2016-10-24T07:50:05.704Z,3564
2016-10-24T07:51:05.656Z,3488
2016-10-24T07:52:05.637Z,3236
2016-10-24T07:53:04.989Z,2724
2016-10-24T07:54:05.251Z,3104
2016-10-24T07:55:05.211Z,3564
2016-10-24T07:56:04.877Z,3444
2016-10-24T07:57:05.445Z,3664
2016-10-24T07:58:05.104Z,4076
2016-10-24T07:59:05.067Z,4052
2016-10-24T08:00:04.425Z,3668
2016-10-24T08:01:05.304Z,3332
2016-10-24T08:02:04.963Z,3196
2016-10-24T08:03:05.224Z,3328
2016-10-24T08:04:05.191Z,3332
2016-10-24T08:05:04.856Z,3456
2016-10-24T08:06:05.123Z,3220
2016-10-24T08:07:04.775Z,3172
2016-10-24T08:08:04.739Z,3128
2016-10-24T08:09:05.006Z,3604
2016-10-24T08:10:04.375Z,5136
2016-10-24T08:11:04.632Z,5700
2016-10-24T08:12:04.598Z,6104
2016-10-24T08:13:04.858Z,7132
2016-10-24T08:14:04.829Z,7204
2016-10-24T08:15:04.488Z,6176
2016-10-24T08:16:04.752Z,5028
2016-10-24T08:17:04.410Z,4432
2016-10-24T08:18:04.376Z,4076
2016-10-24T08:19:04.639Z,4120
2016-10-24T08:20:04.608Z,4452
2016-10-24T08:21:03.963Z,4804
2016-10-24T08:22:04.535Z,5228
2016-10-24T08:23:04.193Z,5300
2016-10-24T08:24:04.186Z,5440
2016-10-24T08:25:03.829Z,5264
2016-10-24T08:26:04.400Z,4820
2016-10-24T08:27:04.386Z,4676
2016-10-24T08:28:04.016Z,4764
2016-10-24T08:29:03.982Z,5228
2016-10-24T08:30:03.982Z,5388
2016-10-24T08:31:03.907Z,5308
2016-10-24T08:32:03.872Z,5172
2016-10-24T08:33:03.837Z,5400
2016-10-24T08:34:03.802Z,5976
2016-10-24T08:35:03.762Z,6076
2016-10-24T08:36:04.031Z,5728
2016-10-24T08:37:03.991Z,5620
2016-10-24T08:38:03.959Z,5752
2016-10-24T08:39:03.614Z,5696
2016-10-24T08:40:03.885Z,5624
2016-10-24T08:41:03.856Z,5168
2016-10-24T08:42:03.212Z,5792
2016-10-24T08:43:03.775Z,6612
2016-10-24T08:44:03.470Z,7644
2016-10-24T08:45:03.408Z,7844
2016-10-24T08:46:03.070Z,7568
2016-10-24T08:47:03.632Z,7468
2016-10-24T08:48:03.296Z,8080
2016-10-24T08:49:03.562Z,8480
2016-10-24T08:50:03.224Z,8776
2016-10-24T08:51:03.187Z,8732
2016-10-24T08:52:02.887Z,9404
2016-10-24T08:53:02.816Z,9628
2016-10-24T08:54:03.388Z,10488
2016-10-24T08:55:03.353Z,10616
2016-10-24T08:56:03.011Z,9580
2016-10-24T08:57:02.982Z,8932
2016-10-24T08:58:02.941Z,8632
2016-10-24T08:59:03.208Z,8660
2016-10-24T09:00:02.865Z,8588
2016-10-24T09:01:03.168Z,9036
2016-10-24T09:02:02.800Z,9420
2016-10-24T09:03:03.104Z,9324
2016-10-24T09:04:02.723Z,9196
2016-10-24T09:05:02.389Z,9160
2016-10-24T09:06:02.663Z,8544
2016-10-24T09:07:02.933Z,8612
2016-10-24T09:08:02.587Z,8576
2016-10-24T09:09:02.248Z,7972
2016-10-24T09:10:02.854Z,7760
2016-10-24T09:11:02.482Z,7792
2016-10-24T09:12:02.444Z,8300
2016-10-24T09:13:02.414Z,9012
2016-10-24T09:14:02.389Z,10072
2016-10-24T09:15:02.638Z,15356
2016-10-24T09:16:02.602Z,12136
2016-10-24T09:17:02.003Z,14264
2016-10-24T09:18:01.926Z,12524
2016-10-24T09:19:02.500Z,8288
2016-10-24T09:20:02.161Z,7536
2016-10-24T09:21:02.125Z,7068
2016-10-24T09:22:02.391Z,7192
2016-10-24T09:23:02.059Z,6836
2016-10-24T09:24:02.317Z,10988
2016-10-24T09:25:01.981Z,9152
2016-10-24T09:26:02.260Z,8920
2016-10-24T09:27:01.917Z,10500
2016-10-24T09:28:02.142Z,10936
2016-10-24T09:29:02.148Z,11220
2016-10-24T09:30:01.506Z,9212
2016-10-24T09:31:01.477Z,11568
2016-10-24T09:32:02.039Z,10288
2016-10-24T09:33:02.005Z,10664
2016-10-24T09:34:01.969Z,8132
2016-10-24T09:35:01.636Z,9116
2016-10-24T09:36:01.600Z,8324
2016-10-24T09:37:01.873Z,8132
2016-10-24T09:38:01.835Z,8620
2016-10-24T09:39:01.790Z,7900
2016-10-24T09:40:01.459Z,7904
2016-10-24T09:41:01.121Z,6208
2016-10-24T09:42:01.689Z,5532
2016-10-24T09:43:01.660Z,6224
2016-10-24T09:44:01.618Z,6180
2016-10-24T09:45:01.282Z,5724
2016-10-24T09:46:01.259Z,5684
2016-10-24T09:47:01.209Z,6004
2016-10-24T09:48:01.475Z,6360
2016-10-24T09:49:01.436Z,7384
2016-10-24T09:50:01.106Z,7804
2016-10-24T09:51:01.405Z,7288
2016-10-24T09:52:00.428Z,7728
2016-10-24T09:53:00.704Z,7972
2016-10-24T09:54:00.659Z,8940
2016-10-24T09:55:01.227Z,8612
2016-10-24T09:56:00.294Z,9260
2016-10-24T09:57:01.154Z,13476
2016-10-24T09:58:00.822Z,16448
2016-10-24T09:59:01.203Z,19584
2016-10-24T10:00:00.748Z,20960
2016-10-24T10:01:00.720Z,11528
2016-10-24T10:02:00.370Z,12528
2016-10-24T10:03:00.943Z,11896
2016-10-24T10:04:00.914Z,14812
2016-10-24T10:05:00.888Z,15872
2016-10-24T10:06:00.235Z,16252
2016-10-24T10:07:00.497Z,15560
2016-10-24T10:08:00.167Z,14720
2016-10-24T10:09:00.131Z,14688
2016-10-24T10:10:00.700Z,11244
2016-10-24T10:11:00.062Z,8892
2016-10-24T10:12:00.636Z,7940
2016-10-24T10:13:00.606Z,9324
2016-10-24T10:14:00.560Z,14052
2016-10-24T10:15:00.532Z,11480
2016-10-24T10:16:00.530Z,10548
2016-10-24T10:17:00.462Z,8304
2016-10-24T10:18:00.128Z,7796
2016-10-24T10:18:59.799Z,9968
2016-10-24T10:20:00.064Z,15980
2016-10-24T10:21:00.326Z,20960
2016-10-24T10:22:00.289Z,21664
2016-10-24T10:22:59.958Z,20416
2016-10-24T10:24:00.232Z,23040
2016-10-24T10:24:59.895Z,20512
2016-10-24T10:25:59.861Z,17312
2016-10-24T10:27:00.125Z,17664
2016-10-24T10:28:00.098Z,21088
2016-10-24T10:28:59.762Z,21216
2016-10-24T10:29:59.759Z,26208
2016-10-24T10:30:59.389Z,29536
2016-10-24T10:31:59.654Z,25504
2016-10-24T10:32:59.930Z,21152
2016-10-24T10:33:59.896Z,26176
2016-10-24T10:34:59.865Z,26816
2016-10-24T10:35:59.574Z,23200
2016-10-24T10:36:59.501Z,26688
2016-10-24T10:37:59.464Z,26464
2016-10-24T10:38:59.734Z,24704
2016-10-24T10:39:59.102Z,29248
2016-10-24T10:40:59.377Z,27904
2016-10-24T10:41:59.380Z,20608
2016-10-24T10:42:59.352Z,19520
2016-10-24T10:43:59.625Z,21056
2016-10-24T10:44:59.552Z,22272
2016-10-24T10:45:59.529Z,22432
2016-10-24T10:46:59.186Z,20640
2016-10-24T10:47:59.455Z,18048
2016-10-24T10:48:59.129Z,14908
2016-10-24T10:49:59.095Z,13668
2016-10-24T10:50:59.100Z,15580
2016-10-24T10:51:58.733Z,17952
2016-10-24T10:52:59.010Z,23584
2016-10-24T10:53:58.978Z,25088
2016-10-24T10:54:59.250Z,21984
2016-10-24T10:55:58.913Z,16080
2016-10-24T10:56:58.884Z,14616
2016-10-24T10:57:59.161Z,14252
2016-10-24T10:58:58.853Z,18272
2016-10-24T10:59:59.097Z,15876
2016-10-24T11:00:58.763Z,14896
2016-10-24T11:01:59.048Z,19232
2016-10-24T11:02:58.405Z,18048
2016-10-24T11:03:58.672Z,19232
2016-10-24T11:04:58.949Z,17728
2016-10-24T11:05:58.918Z,16928
2016-10-24T11:06:58.890Z,17056
2016-10-24T11:07:58.597Z,16928
2016-10-24T11:08:58.532Z,18240
2016-10-24T11:09:58.489Z,21120
2016-10-24T11:10:58.177Z,20384
2016-10-24T11:11:58.734Z,18976
2016-10-24T11:12:58.403Z,18752
2016-10-24T11:13:58.674Z,18272
2016-10-24T11:14:58.342Z,17792
2016-10-24T11:15:58.315Z,20064
2016-10-24T11:16:58.593Z,20160
2016-10-24T11:17:58.251Z,27200
2016-10-24T11:18:58.222Z,19488
2016-10-24T11:19:58.494Z,14876
2016-10-24T11:20:58.167Z,16468
2016-10-24T11:21:57.832Z,16348
2016-10-24T11:22:58.411Z,17728
2016-10-24T11:23:58.075Z,18944
2016-10-24T11:24:58.046Z,17376
2016-10-24T11:25:58.013Z,17504
2016-10-24T11:26:57.984Z,17504
2016-10-24T11:27:58.252Z,18144
2016-10-24T11:28:57.917Z,17920
2016-10-24T11:29:58.194Z,16432
2016-10-24T11:30:57.562Z,16100
2016-10-24T11:31:57.830Z,16264
2016-10-24T11:32:58.106Z,16540
2016-10-24T11:33:58.079Z,16328
2016-10-24T11:34:57.745Z,15852
2016-10-24T11:35:58.022Z,16248
2016-10-24T11:36:57.988Z,17312
2016-10-24T11:37:57.658Z,17216
2016-10-24T11:38:57.931Z,17248
2016-10-24T11:39:57.900Z,17024
2016-10-24T11:40:57.869Z,17216
2016-10-24T11:41:57.536Z,16076
2016-10-24T11:42:57.505Z,15304
2016-10-24T11:43:57.176Z,15100
2016-10-24T11:44:57.449Z,15644
2016-10-24T11:45:57.718Z,14976
2016-10-24T11:46:57.684Z,13872
2016-10-24T11:47:57.363Z,13236
2016-10-24T11:48:57.667Z,12788
2016-10-24T11:49:57.600Z,12348
2016-10-24T11:50:57.266Z,12000
2016-10-24T11:51:57.536Z,11888
2016-10-24T11:52:57.207Z,11772
2016-10-24T11:53:57.481Z,11908
2016-10-24T11:54:57.443Z,12056
2016-10-24T11:55:57.114Z,12252
2016-10-24T11:56:57.428Z,12404
2016-10-24T11:57:57.053Z,12424
2016-10-24T11:58:57.327Z,12380
2016-10-24T11:59:57.296Z,12316
2016-10-24T12:00:57.266Z,12304
2016-10-24T12:01:56.932Z,12292
2016-10-24T12:02:56.597Z,12216
2016-10-24T12:03:57.181Z,12148
2016-10-24T12:04:56.848Z,12016
2016-10-24T12:05:56.809Z,11864
2016-10-24T12:06:56.778Z,11716
2016-10-24T12:07:57.053Z,11624
2016-10-24T12:08:57.035Z,11528
2016-10-24T12:09:56.687Z,11456
2016-10-24T12:10:56.961Z,11356
2016-10-24T12:11:56.630Z,11232
2016-10-24T12:12:56.593Z,11108
2016-10-24T12:13:56.868Z,11016
2016-10-24T12:14:56.227Z,10976
2016-10-24T12:15:56.500Z,10900
2016-10-24T12:16:56.175Z,10736
2016-10-24T12:17:56.139Z,10576
2016-10-24T12:18:56.406Z,10448
2016-10-24T12:19:56.376Z,10428
2016-10-24T12:20:56.041Z,10616
2016-10-24T12:21:56.014Z,10716
2016-10-24T12:22:56.281Z,10828
2016-10-24T12:23:56.556Z,10976
2016-10-24T12:24:56.521Z,11172
2016-10-24T12:25:56.187Z,11300
2016-10-24T12:26:56.459Z,11404
2016-10-24T12:27:56.429Z,11468
2016-10-24T12:28:56.092Z,11440
2016-10-24T12:29:56.069Z,11336
2016-10-24T12:30:55.769Z,11264
2016-10-24T12:31:55.999Z,11268
2016-10-24T12:32:55.982Z,11204
2016-10-24T12:33:56.239Z,11144
2016-10-24T12:34:56.210Z,11112
2016-10-24T12:35:55.876Z,11092
2016-10-24T12:36:56.182Z,10972
2016-10-24T12:37:56.124Z,10876
2016-10-24T12:38:56.081Z,10784
2016-10-24T12:39:56.053Z,10700
2016-10-24T12:40:55.730Z,10668
2016-10-24T12:41:55.393Z,10632
2016-10-24T12:42:55.667Z,10564
2016-10-24T12:43:55.930Z,10440
2016-10-24T12:44:55.905Z,10312
2016-10-24T12:45:55.565Z,10236
2016-10-24T12:46:55.829Z,10072
2016-10-24T12:47:55.803Z,9872
2016-10-24T12:48:55.468Z,9692
2016-10-24T12:49:55.445Z,9492
2016-10-24T12:50:55.400Z,9364
2016-10-24T12:51:55.684Z,9472
2016-10-24T12:52:55.341Z,9448
2016-10-24T12:53:55.611Z,9236
2016-10-24T12:54:54.979Z,9296
2016-10-24T12:55:55.250Z,9424
2016-10-24T12:56:54.911Z,9440
2016-10-24T12:57:55.185Z,9336
2016-10-24T12:58:55.161Z,9120
2016-10-24T12:59:55.124Z,8992
2016-10-24T13:00:54.792Z,8912
2016-10-24T13:01:55.067Z,8900
2016-10-24T13:02:55.336Z,9004
2016-10-24T13:03:55.004Z,9060
2016-10-24T13:04:55.278Z,8944
2016-10-24T13:05:54.634Z,8816
2016-10-24T13:06:54.907Z,9036
2016-10-24T13:07:54.872Z,9064
2016-10-24T13:08:55.144Z,9232
2016-10-24T13:09:54.814Z,9344
2016-10-24T13:10:54.780Z,9420
2016-10-24T13:11:54.446Z,9196
2016-10-24T13:12:54.720Z,9092
2016-10-24T13:13:54.991Z,8884
2016-10-24T13:14:54.651Z,8716
2016-10-24T13:15:54.313Z,8572
2016-10-24T13:16:54.892Z,8588
2016-10-24T13:17:54.894Z,8724
2016-10-24T13:18:54.225Z,8884
2016-10-24T13:19:54.797Z,8896
2016-10-24T13:20:54.463Z,8920
2016-10-24T13:21:54.729Z,9036
2016-10-24T13:22:54.706Z,9008
2016-10-24T13:23:54.368Z,9020
2016-10-24T13:24:53.729Z,9008
2016-10-24T13:25:54.603Z,8956
2016-10-24T13:26:53.671Z,8920
2016-10-24T13:27:53.942Z,8760
2016-10-24T13:28:54.211Z,8732
2016-10-24T13:29:54.475Z,8684
2016-10-24T13:30:53.542Z,8532
2016-10-24T13:31:54.416Z,8340
2016-10-24T13:32:54.085Z,8232
2016-10-24T13:33:54.354Z,8132
2016-10-24T13:34:54.019Z,8108
2016-10-24T13:35:53.992Z,8044
2016-10-24T13:36:53.962Z,7984
2016-10-24T13:37:54.222Z,7884
2016-10-24T13:38:53.893Z,7740
2016-10-24T13:39:53.255Z,7604
2016-10-24T13:40:53.526Z,7536
2016-10-24T13:41:53.795Z,7484
2016-10-24T13:42:54.071Z,7488
2016-10-24T13:43:53.447Z,7536
2016-10-24T13:44:54.007Z,7584
2016-10-24T13:45:53.669Z,7624
2016-10-24T13:46:53.940Z,7680